Riversville, CT

11:43 PM EDT on June 23, 2017 (GMT -0400)
Westchester County | | Change Station
Active Advisory: Coastal Flood Statement Active Notice: Coastal Flood Statement

Elev 436 ft 41.07 °N, 73.71 °W | Updated 47 minutes ago

Light Rain
Light Rain
75 °F
Feels Like 75 °F
N
0
Wind Variable Wind from North

Today
High -- | Low -- °F
--% Chance of Precip.
Yesterday
High -- | Low -- °F
Precip. -- in
Pressure 29.62 in
Visibility 8.0 miles
Clouds Few 3000 ft
Dew Point 72 °F
Humidity 89%
Rainfall 0.00 in
Snow Depth Not available.
5:23 AM 8:31 PM
New Moon, 0% visible
METAR KHPN 240256Z 00000KT 08SM -RA FEW030 24/22 A2963 RMK SLP 028
Pressure 29.62 in
Visibility 8.0 miles
Clouds Few 3000 ft
Dew Point 72 °F
Humidity 89%
Rainfall 0.00 in
Snow Depth Not available.
5:23 AM 8:31 PM
New Moon, 0% visible
METAR KHPN 240256Z 00000KT 08SM -RA FEW030 24/22 A2963 RMK SLP 028

Get Your Daily Forecast Email!

Thanks for signing up!

Be on the lookout for a verification email in your inbox.

You'll start receiving severe weather alerts in your inbox..

×

10-Day Weather Forecast

Almanac

Astronomy

Jun. 23, 2017 Rise Set
Actual Time
Civil Twilight
Nautical Twilight
Astronomical Twilight
Moon
Length of Visible Light
Length of Day
Tomorrow will be .
, % of the Moon is Illuminated

Today's Extremes

State Highs State Lows

Community

WunderPhotos

Category 6

Welcome to Category 6. This is the collective home for Weather Underground's featured writeups by Dr. Jeff Masters (right), Bob Henson (left), Chris Burt, and other regular contributors.

Nearby

Air Quality

  Air Quality AQ Index Pollutant
Not available.

Snow Depth

Station Depth Elevation

Earthquake Activity

City Distance Mag. Time & Date
Minimum magnitude displayed is 2.5.

Coastal Water Temperatures

Place Temperature

Stations

Nearby Weather Stations

Station Location Temp. Windchill Dew Point Humidity Wind Precip. Elev Updated Type
                   

Watches & Warnings

Coastal Flood Statement
Issued: 4:02 AM EDT Jun. 23, 2017 – National Weather Service

* locations... coastal Westchester and Fairfield counties.

* Positive tidal departures... 1/2 to 3/4 ft.

* Timing... times of high tide between 9 PM and 11 PM.

* Impacts... brief and minor flooding of the most vulnerable
shoreline and Waterfront roads and properties.